Time;durP1;ratioP1;P1;durP2;ratioP2;P2;SDS_P1;SDS_P2;PMS_P1;PMS_P2;Temp;Humidity;BMP_temperature;BMP_pressure;BME280_temperature;BME280_humidity;BME280_pressure;Samples;Min_cycle;Max_cycle;Signal;HPM_P1;HPM_P2
2022/06/22 00:02:08;;;;;;;12.03;6.60;;;;;;;33.46;46.45;101283.19;5031330;28;20427;-75
2022/06/22 00:04:52;;;;;;;10.13;4.60;;;;;;;33.37;46.68;101274.75;5031382;28;20940;-75
2022/06/22 00:07:36;;;;;;;12.30;6.70;;;;;;;33.24;47.00;101277.94;5031257;28;20451;-74
2022/06/22 00:10:29;;;;;;;12.17;5.37;;;;;;;33.27;46.53;101255.94;5031125;28;20454;-74
2022/06/22 00:12:58;;;;;;;11.87;6.70;;;;;;;33.57;45.64;101257.09;5028728;28;20887;-75
2022/06/22 00:15:38;;;;;;;14.57;5.53;;;;;;;33.29;46.46;101250.28;5031384;28;20456;-75
2022/06/22 00:18:20;;;;;;;13.70;5.20;;;;;;;33.26;46.55;101248.09;5031686;28;20447;-73
2022/06/22 00:20:52;;;;;;;11.43;6.67;;;;;;;32.94;46.91;101242.91;5031518;28;20569;-73
2022/06/22 00:23:41;;;;;;;9.30;5.73;;;;;;;32.05;48.85;101236.41;5031337;28;20454;-74
2022/06/22 00:26:16;;;;;;;9.90;5.47;;;;;;;32.56;48.83;101231.41;5030953;28;20427;-72
2022/06/22 00:29:09;;;;;;;9.50;5.00;;;;;;;32.46;49.27;101232.13;5030982;28;20418;-75
2022/06/22 00:31:43;;;;;;;10.53;5.07;;;;;;;32.67;48.38;101224.22;5030701;28;20466;-74
2022/06/22 00:34:09;;;;;;;8.40;5.00;;;;;;;32.50;48.52;101227.88;5031176;28;20434;-75
2022/06/22 00:36:40;;;;;;;12.10;5.73;;;;;;;32.13;49.30;101217.13;5031411;28;20420;-73
2022/06/22 00:39:17;;;;;;;13.30;5.17;;;;;;;32.21;49.45;101213.16;5031461;28;20432;-73
2022/06/22 00:41:52;;;;;;;10.30;5.10;;;;;;;31.94;49.73;101211.34;5031307;28;20442;-74
2022/06/22 00:44:19;;;;;;;9.03;4.80;;;;;;;32.19;49.07;101209.91;5031440;28;20423;-74
2022/06/22 00:46:59;;;;;;;9.33;6.97;;;;;;;32.25;48.76;101209.69;5030942;28;20447;-72
2022/06/22 00:49:25;;;;;;;8.90;5.27;;;;;;;32.07;49.28;101208.22;5030958;28;20426;-74
2022/06/22 00:51:52;;;;;;;8.83;5.00;;;;;;;32.16;48.84;101207.72;5030733;28;21081;-73
2022/06/22 00:54:25;;;;;;;17.27;5.03;;;;;;;32.10;48.69;101209.56;5030859;28;20802;-73
2022/06/22 00:57:12;;;;;;;10.53;5.00;;;;;;;32.74;47.57;101217.53;5030461;28;20454;-75
2022/06/22 01:00:06;;;;;;;12.73;4.97;;;;;;;33.02;47.18;101218.19;5030720;28;20447;-74
2022/06/22 01:02:45;;;;;;;10.73;4.97;;;;;;;32.91;46.56;101227.31;5030283;28;20420;-75
2022/06/22 01:05:37;;;;;;;8.00;4.03;;;;;;;33.01;46.37;101230.00;5030058;28;20501;-75
2022/06/22 01:08:30;;;;;;;8.90;4.03;;;;;;;33.00;46.55;101233.78;5030825;28;20518;-73
2022/06/22 01:12:16;;;;;;;12.70;4.53;;;;;;;32.83;46.43;101231.25;5030374;28;20622;-74
2022/06/22 01:14:04;;;;;;;6.97;3.70;;;;;;;32.92;46.89;101223.53;5031596;28;20498;-74
2022/06/22 01:16:37;;;;;;;8.40;3.80;;;;;;;32.86;46.70;101215.44;5030687;28;20948;-74
2022/06/22 01:19:27;;;;;;;13.33;3.40;;;;;;;32.75;46.63;101208.38;5030369;28;20423;-73
2022/06/22 01:22:11;;;;;;;7.00;4.10;;;;;;;32.52;47.57;101206.91;5030312;28;20523;-74
2022/06/22 01:25:02;;;;;;;8.70;3.80;;;;;;;32.60;47.08;101211.81;5035936;28;20826;-74
2022/06/22 01:27:36;;;;;;;8.77;3.67;;;;;;;32.45;47.33;101203.66;5034164;28;20458;-74
2022/06/22 01:30:31;;;;;;;8.80;3.90;;;;;;;32.08;48.20;101200.97;5034036;28;20484;-74
2022/06/22 01:32:58;;;;;;;5.63;2.60;;;;;;;32.44;47.96;101190.50;5034247;28;20465;-75
2022/06/22 01:35:31;;;;;;;8.13;5.00;;;;;;;32.56;47.61;101186.53;5034087;28;20527;-75
2022/06/22 01:37:58;;;;;;;7.57;3.33;;;;;;;32.66;47.55;101191.16;5034129;28;20430;-75
2022/06/22 01:40:33;;;;;;;9.03;4.13;;;;;;;32.54;48.11;101179.84;5033961;28;20881;-74
2022/06/22 01:43:43;;;;;;;13.47;5.37;;;;;;;32.25;48.44;101169.44;5034582;28;20927;-74
2022/06/22 01:46:41;;;;;;;8.00;4.43;;;;;;;32.46;47.93;101175.75;4947643;28;20933;-75
2022/06/22 01:49:16;;;;;;;12.00;4.63;;;;;;;32.31;48.19;101172.94;5033821;28;20428;-73
2022/06/22 01:51:53;;;;;;;10.97;5.13;;;;;;;32.61;47.90;101167.78;5033831;28;20519;-75
2022/06/22 01:54:29;;;;;;;13.77;4.23;;;;;;;32.80;47.59;101165.44;5033765;28;20880;-74
2022/06/22 01:56:59;;;;;;;9.70;3.93;;;;;;;32.48;47.75;101170.94;5033601;28;20430;-73
2022/06/22 01:59:31;;;;;;;8.60;3.90;;;;;;;32.61;47.41;101162.41;5033681;28;20451;-72
2022/06/22 02:02:25;;;;;;;6.77;3.33;;;;;;;32.68;47.29;101156.78;5033607;28;20419;-75
2022/06/22 02:04:58;;;;;;;9.37;3.60;;;;;;;32.94;46.44;101156.91;5033837;28;20711;-73
2022/06/22 02:07:54;;;;;;;8.27;3.80;;;;;;;32.72;47.15;101157.06;5033641;28;20931;-73
2022/06/22 02:10:30;;;;;;;7.40;4.00;;;;;;;32.63;47.25;101157.56;5026808;28;20569;-73
2022/06/22 02:13:22;;;;;;;10.17;4.03;;;;;;;32.80;46.42;101157.38;5033493;28;20517;-73
2022/06/22 02:16:05;;;;;;;6.70;3.30;;;;;;;32.90;47.14;101145.88;5033454;28;20423;-73
2022/06/22 02:18:34;;;;;;;6.90;3.90;;;;;;;32.99;46.43;101138.91;5034561;28;21347;-73
2022/06/22 02:21:22;;;;;;;8.67;3.90;;;;;;;33.01;46.46;101133.28;5034521;28;20959;-75
2022/06/22 02:23:59;;;;;;;6.40;3.70;;;;;;;33.05;46.52;101129.00;5034071;28;20431;-74
2022/06/22 02:26:32;;;;;;;7.40;4.20;;;;;;;32.75;47.12;101130.47;5034550;28;20407;-74
2022/06/22 02:28:58;;;;;;;8.87;4.17;;;;;;;33.14;46.50;101116.63;5032835;28;20420;-73
2022/06/22 02:31:25;;;;;;;8.13;4.03;;;;;;;33.12;46.43;101116.09;5032666;28;20862;-72
2022/06/22 02:33:54;;;;;;;9.63;4.33;;;;;;;33.39;45.92;101113.16;5032704;28;20835;-75
2022/06/22 02:36:23;;;;;;;6.77;3.70;;;;;;;33.42;45.63;101109.97;5033034;28;20419;-75
2022/06/22 02:38:52;;;;;;;5.80;2.93;;;;;;;33.42;45.59;101113.47;5032820;28;20447;-75
2022/06/22 02:46:54;;;;;;;6.80;2.97;;;;;;;33.24;45.80;101108.59;5034157;28;20399;-74
2022/06/22 02:49:31;;;;;;;9.50;4.37;;;;;;;33.27;45.51;101109.91;5032804;28;20819;-75
2022/06/22 02:52:00;;;;;;;7.57;3.97;;;;;;;33.26;45.60;101106.41;5032740;28;20427;-74
2022/06/22 02:54:51;;;;;;;7.57;4.20;;;;;;;33.29;45.17;101111.28;5032682;28;20511;-74
2022/06/22 02:57:43;;;;;;;7.60;3.50;;;;;;;33.23;45.21;101112.34;5033878;28;20436;-74
2022/06/22 03:00:10;;;;;;;8.30;4.30;;;;;;;33.39;45.14;101108.63;5032439;28;20439;-75
2022/06/22 03:02:36;;;;;;;12.03;4.40;;;;;;;33.53;44.99;101108.09;5032450;28;20447;-75
2022/06/22 03:05:05;;;;;;;7.83;4.10;;;;;;;33.48;45.34;101108.91;5032465;28;20424;-73
2022/06/22 03:07:35;;;;;;;14.70;6.17;;;;;;;33.52;45.56;101115.34;5032535;28;20431;-74
2022/06/22 03:10:02;;;;;;;16.67;6.10;;;;;;;33.50;45.18;101116.69;5032226;28;20567;-74
2022/06/22 03:12:28;;;;;;;19.27;6.20;;;;;;;33.47;44.98;101118.03;5032650;28;20426;-73
2022/06/22 03:15:02;;;;;;;14.70;6.10;;;;;;;33.50;45.26;101109.41;5032373;28;20427;-74
2022/06/22 03:17:34;;;;;;;19.60;6.13;;;;;;;33.61;44.96;101102.16;5031899;28;20539;-74
2022/06/22 03:20:03;;;;;;;15.83;7.13;;;;;;;33.46;45.13;101110.25;5031681;28;20475;-74
2022/06/22 03:22:45;;;;;;;17.10;6.50;;;;;;;33.29;45.87;101105.09;5032142;28;20424;-74
2022/06/22 03:25:30;;;;;;;15.93;6.13;;;;;;;33.34;45.98;101105.09;5032023;28;20454;-75
2022/06/22 03:28:04;;;;;;;23.50;7.80;;;;;;;33.55;45.78;101103.25;5032270;28;20428;-74
2022/06/22 03:30:54;;;;;;;22.23;7.50;;;;;;;33.51;45.67;101094.09;5032514;28;20902;-74
2022/06/22 03:33:39;;;;;;;19.73;7.23;;;;;;;33.51;45.42;101091.41;5031147;28;20975;-73
2022/06/22 03:36:20;;;;;;;25.23;7.23;;;;;;;33.42;45.58;101078.50;5032556;28;20435;-73
2022/06/22 03:38:57;;;;;;;25.00;8.27;;;;;;;33.44;45.70;101082.81;5032437;28;20431;-74
2022/06/22 03:41:27;;;;;;;29.00;8.10;;;;;;;33.27;46.18;101083.03;5032485;28;20478;-74
2022/06/22 03:44:09;;;;;;;24.70;10.73;;;;;;;33.23;46.19;101088.16;5031963;28;20436;-75
2022/06/22 03:46:51;;;;;;;26.63;10.40;;;;;;;33.25;45.92;101083.31;5031488;28;20416;-75
2022/06/22 03:50:03;;;;;;;25.23;9.33;;;;;;;33.19;46.39;101086.25;5032016;28;20943;-74
2022/06/22 03:52:36;;;;;;;19.13;10.17;;;;;;;33.13;46.64;101088.13;5033473;28;20448;-73
2022/06/22 03:55:10;;;;;;;17.57;10.60;;;;;;;33.07;46.89;101090.00;5032111;28;20534;-74
2022/06/22 03:57:43;;;;;;;37.73;9.70;;;;;;;33.11;46.51;101101.03;5032114;28;20419;-74
2022/06/22 04:00:12;;;;;;;28.80;10.87;;;;;;;33.32;46.33;101102.66;5031307;28;20952;-74
2022/06/22 04:02:40;;;;;;;26.23;10.50;;;;;;;33.55;46.13;101108.63;5031397;28;20460;-75
2022/06/22 04:05:06;;;;;;;37.87;12.57;;;;;;;33.49;45.90;101098.94;5031521;28;20878;-74
2022/06/22 04:07:37;;;;;;;19.10;10.97;;;;;;;33.60;46.02;101100.56;5031174;28;20530;-74
2022/06/22 04:10:07;;;;;;;19.83;9.33;;;;;;;33.47;46.26;101095.72;5031158;28;20463;-74
2022/06/22 04:12:43;;;;;;;18.73;7.10;;;;;;;33.47;46.16;101090.34;5030981;28;20438;-74
2022/06/22 04:15:33;;;;;;;29.83;8.27;;;;;;;33.33;46.66;101095.41;5032402;28;20446;-74
2022/06/22 04:18:05;;;;;;;14.23;7.07;;;;;;;33.48;46.40;101091.94;5031228;28;20481;-73
2022/06/22 04:20:52;;;;;;;12.67;5.33;;;;;;;33.64;46.31;101096.25;5030872;28;20550;-75
2022/06/22 04:23:32;;;;;;;20.23;7.60;;;;;;;33.63;46.35;101100.81;5031290;28;20419;-75
2022/06/22 04:26:27;;;;;;;15.43;6.70;;;;;;;33.76;45.78;101104.84;5030920;28;20455;-75
2022/06/22 04:29:10;;;;;;;18.53;6.70;;;;;;;33.76;45.94;101110.22;5030483;28;20427;-75
2022/06/22 04:31:43;;;;;;;21.80;6.53;;;;;;;33.81;45.59;101112.88;5032141;28;20451;-75
2022/06/22 04:34:18;;;;;;;17.73;6.30;;;;;;;33.45;46.25;101116.69;5032274;28;20461;-73
2022/06/22 04:36:53;;;;;;;16.20;5.47;;;;;;;33.24;46.45;101119.34;5030724;28;20538;-73
2022/06/22 04:39:30;;;;;;;19.43;4.90;;;;;;;33.44;46.51;101117.75;5030814;28;20415;-74
2022/06/22 04:42:00;;;;;;;15.70;6.27;;;;;;;33.60;46.02;101120.19;5030640;28;20416;-73
2022/06/22 04:44:35;;;;;;;14.97;7.50;;;;;;;33.63;46.18;101121.53;5032137;28;20760;-75
2022/06/22 04:47:20;;;;;;;19.20;7.03;;;;;;;33.56;46.57;101121.78;5030718;28;20419;-75
2022/06/22 04:49:51;;;;;;;18.53;9.10;;;;;;;33.48;46.58;101125.03;5030444;28;20440;-75
2022/06/22 04:52:27;;;;;;;16.10;8.60;;;;;;;33.38;46.60;101125.00;5030696;28;20511;-75
2022/06/22 04:54:57;;;;;;;12.77;8.30;;;;;;;33.27;47.24;101120.66;5030522;28;20423;-74
2022/06/22 04:57:36;;;;;;;23.07;8.27;;;;;;;33.08;47.66;101125.75;5031676;28;20553;-74
2022/06/22 05:00:14;;;;;;;17.50;7.73;;;;;;;32.81;48.48;101128.63;5030408;28;20448;-74
2022/06/22 05:02:43;;;;;;;19.77;8.10;;;;;;;32.63;48.81;101117.28;5030325;28;20443;-74
2022/06/22 05:05:23;;;;;;;19.13;8.47;;;;;;;32.98;47.74;101123.88;5030510;28;20937;-73
2022/06/22 05:08:03;;;;;;;18.03;8.63;;;;;;;32.86;47.87;101124.06;5030485;28;20431;-75
2022/06/22 05:10:38;;;;;;;18.47;7.40;;;;;;;32.98;47.37;101123.88;5030201;28;20495;-74
2022/06/22 05:13:17;;;;;;;13.97;7.13;;;;;;;33.02;47.23;101116.06;5031805;28;20887;-75
2022/06/22 05:15:46;;;;;;;21.97;8.90;;;;;;;32.80;48.09;101111.69;5025580;28;20427;-75
2022/06/22 05:18:18;;;;;;;14.30;6.47;;;;;;;32.75;47.97;101111.69;5030224;28;20455;-74
2022/06/22 05:20:59;;;;;;;29.97;8.90;;;;;;;33.10;47.49;101104.81;5029975;28;21015;-74
2022/06/22 05:23:28;;;;;;;15.07;9.30;;;;;;;32.98;47.46;101115.00;5030602;28;20431;-73
2022/06/22 05:25:57;;;;;;;19.53;8.00;;;;;;;33.09;46.77;101114.75;5030196;28;20502;-73
2022/06/22 05:28:52;;;;;;;18.50;7.17;;;;;;;32.83;47.70;101119.22;5030308;28;20415;-72
2022/06/22 05:31:26;;;;;;;15.70;7.63;;;;;;;32.70;48.33;101117.03;5024056;28;20463;-71
2022/06/22 05:33:55;;;;;;;18.97;7.43;;;;;;;32.63;48.28;101116.47;5030141;28;20412;-74
2022/06/22 05:36:24;;;;;;;11.57;7.10;;;;;;;32.78;47.68;101118.38;5030010;28;20419;-74
2022/06/22 05:38:54;;;;;;;13.40;8.07;;;;;;;32.92;47.69;101124.13;5031560;28;20408;-74
2022/06/22 05:41:27;;;;;;;10.07;5.60;;;;;;;33.00;47.15;101126.28;5030106;28;20418;-74
2022/06/22 05:43:57;;;;;;;11.33;7.37;;;;;;;33.03;47.20;101128.44;5030409;28;20473;-73
2022/06/22 05:46:23;;;;;;;11.80;6.50;;;;;;;33.14;46.92;101135.44;5030535;28;20448;-72
2022/06/22 05:48:51;;;;;;;12.40;5.80;;;;;;;33.28;46.65;101136.56;5030393;28;20420;-70
2022/06/22 05:51:33;;;;;;;13.73;6.63;;;;;;;33.24;46.83;101131.97;5030093;28;20991;-72
2022/06/22 05:54:09;;;;;;;23.57;7.17;;;;;;;32.70;47.93;101129.66;5028886;28;20426;-69
2022/06/22 05:56:44;;;;;;;17.27;8.23;;;;;;;32.79;48.05;101138.84;5030287;28;20419;-71
2022/06/22 05:59:28;;;;;;;15.07;8.07;;;;;;;32.78;47.40;101139.88;5029543;28;20477;-73
2022/06/22 06:02:36;;;;;;;14.43;8.37;;;;;;;33.01;47.48;101141.34;5029865;28;20510;-73
2022/06/22 06:05:25;;;;;;;22.13;8.33;;;;;;;33.11;46.57;101144.84;4951272;29;20431;-75
2022/06/22 06:08:02;;;;;;;15.43;7.97;;;;;;;32.76;47.37;101153.59;5030588;28;20473;-69
2022/06/22 06:10:35;;;;;;;12.50;7.03;;;;;;;32.81;47.21;101156.28;5031839;28;20577;-71
2022/06/22 06:13:04;;;;;;;17.47;7.40;;;;;;;33.05;46.59;101158.56;5033519;28;20412;-71
2022/06/22 06:15:34;;;;;;;15.13;8.70;;;;;;;33.03;46.57;101161.50;5033451;28;20919;-71
2022/06/22 06:18:03;;;;;;;12.20;7.27;;;;;;;33.30;46.20;101163.16;5033547;28;20428;-77
2022/06/22 06:20:54;;;;;;;13.13;6.73;;;;;;;33.34;46.28;101167.75;5033137;28;20522;-75
2022/06/22 06:23:29;;;;;;;12.07;6.50;;;;;;;33.27;46.07;101167.22;5033980;28;20435;-75
2022/06/22 06:28:50;;;;;;;8.50;6.10;;;;;;;33.61;45.63;101167.53;5033830;28;20426;-69
2022/06/22 06:31:31;;;;;;;12.10;6.70;;;;;;;33.90;44.94;101167.78;5033103;28;20915;-70
2022/06/22 06:34:00;;;;;;;12.30;7.43;;;;;;;34.25;44.21;101168.81;5032890;28;20871;-70
2022/06/22 06:36:40;;;;;;;11.00;7.20;;;;;;;34.08;43.90;101171.03;5031858;28;20525;-70
2022/06/22 06:39:14;;;;;;;14.70;9.77;;;;;;;33.63;45.11;101167.25;5031952;28;20451;-71
2022/06/22 06:41:46;;;;;;;12.60;8.53;;;;;;;33.48;45.72;101167.25;5014592;28;20396;-70
2022/06/22 06:44:18;;;;;;;15.23;9.80;;;;;;;33.55;45.67;101176.66;5012810;28;20489;-71
2022/06/22 06:46:53;;;;;;;13.10;8.10;;;;;;;33.79;45.17;101182.31;5030715;28;20947;-74
2022/06/22 06:49:31;;;;;;;15.77;9.83;;;;;;;34.11;44.13;101181.25;5028157;28;20469;-74
2022/06/22 06:52:22;;;;;;;11.53;6.53;;;;;;;34.02;43.75;101183.69;5029136;28;20979;-75
2022/06/22 06:54:56;;;;;;;10.70;6.40;;;;;;;34.15;43.84;101183.13;5030839;28;20510;-74
2022/06/22 06:57:23;;;;;;;10.63;7.13;;;;;;;33.82;43.79;101180.97;5030448;28;20513;-74
2022/06/22 07:00:01;;;;;;;13.87;7.80;;;;;;;33.94;44.12;101190.41;5029786;28;20444;-75
2022/06/22 07:02:40;;;;;;;12.40;8.40;;;;;;;33.85;43.93;101194.69;5029347;28;21010;-75
2022/06/22 07:05:19;;;;;;;16.30;8.60;;;;;;;33.58;44.45;101196.84;5028940;28;20518;-74
2022/06/22 07:08:04;;;;;;;15.83;8.57;;;;;;;33.42;45.29;101199.53;5046047;28;20458;-74
2022/06/22 07:10:39;;;;;;;12.70;9.93;;;;;;;33.64;44.96;101190.41;5029205;28;20467;-74
2022/06/22 07:13:17;;;;;;;19.20;12.23;;;;;;;33.83;44.35;101190.69;5029468;28;20939;-74
2022/06/22 07:15:51;;;;;;;14.60;10.13;;;;;;;33.99;44.34;101194.19;5031878;28;20501;-74
2022/06/22 07:18:37;;;;;;;21.43;10.73;;;;;;;33.73;45.37;101194.16;5032253;28;20427;-75
2022/06/22 07:21:09;;;;;;;14.60;10.40;;;;;;;33.72;45.15;101197.94;5033241;28;20474;-74
2022/06/22 07:23:44;;;;;;;17.70;11.33;;;;;;;33.75;44.88;101200.06;5032045;28;20419;-74
2022/06/22 07:26:25;;;;;;;17.77;9.77;;;;;;;34.02;44.61;101199.03;5032059;28;20450;-74
2022/06/22 07:29:06;;;;;;;15.63;10.13;;;;;;;33.95;44.65;101204.69;5032022;28;20429;-71
2022/06/22 07:31:42;;;;;;;17.07;9.43;;;;;;;33.86;44.17;101209.75;5048170;28;20828;-72
2022/06/22 07:34:29;;;;;;;15.83;11.20;;;;;;;33.40;45.18;101207.06;5022879;28;20424;-72
2022/06/22 07:37:03;;;;;;;13.07;9.10;;;;;;;33.54;45.03;101209.22;5028565;28;20449;-72
2022/06/22 07:40:08;;;;;;;9.30;6.20;;;;;;;33.87;44.50;101208.69;5028698;28;20483;-71
2022/06/22 07:42:34;;;;;;;14.93;8.10;;;;;;;33.99;44.39;101205.75;4971697;28;20454;-71
2022/06/22 07:45:00;;;;;;;11.43;7.67;;;;;;;34.08;44.16;101211.41;5005632;28;20452;-71
2022/06/22 07:47:40;;;;;;;14.63;8.67;;;;;;;34.26;43.84;101221.63;5011861;28;20452;-71
2022/06/22 07:50:06;;;;;;;11.87;8.20;;;;;;;34.21;43.80;101227.00;5011715;28;20468;-71
2022/06/22 07:52:40;;;;;;;18.70;8.97;;;;;;;33.88;44.44;101231.84;5011853;28;20421;-71
2022/06/22 07:55:28;;;;;;;15.93;9.80;;;;;;;34.03;44.49;101233.75;5011694;28;20805;-71
2022/06/22 07:58:20;;;;;;;13.53;8.93;;;;;;;34.00;44.26;101236.97;5028243;28;20435;-71
2022/06/22 08:00:50;;;;;;;17.63;8.70;;;;;;;33.81;45.04;101241.25;5005002;28;20479;-71
2022/06/22 08:03:44;;;;;;;17.53;9.90;;;;;;;33.75;45.48;101245.81;5011687;28;20921;-71
2022/06/22 08:06:16;;;;;;;11.90;9.07;;;;;;;33.57;45.45;101243.63;5028233;28;20416;-73
2022/06/22 08:09:14;;;;;;;14.00;9.30;;;;;;;33.63;45.68;101247.94;5011711;28;20812;-70
2022/06/22 08:11:46;;;;;;;13.67;10.30;;;;;;;33.87;45.15;101257.13;5007374;28;20519;-70
2022/06/22 08:14:47;;;;;;;12.10;8.23;;;;;;;34.00;44.63;101252.31;5010711;28;20504;-76
2022/06/22 08:17:43;;;;;;;11.40;8.00;;;;;;;34.19;44.28;101248.00;4971439;28;20462;-72
2022/06/22 08:20:14;;;;;;;9.30;6.47;;;;;;;34.25;43.45;101256.88;5027567;28;20488;-72
2022/06/22 08:22:45;;;;;;;15.40;7.30;;;;;;;34.36;43.31;101255.78;5011395;28;20420;-72
2022/06/22 08:25:15;;;;;;;8.70;6.23;;;;;;;34.44;43.56;101258.78;5011398;28;20462;-72
2022/06/22 08:27:42;;;;;;;11.73;7.10;;;;;;;34.37;44.34;101268.97;5011046;28;20827;-70
2022/06/22 08:30:09;;;;;;;14.30;8.03;;;;;;;34.52;43.69;101267.38;5027629;28;20917;-71
2022/06/22 08:32:43;;;;;;;10.77;7.27;;;;;;;34.56;43.15;101265.75;5027033;28;20445;-70
2022/06/22 08:35:27;;;;;;;10.87;7.60;;;;;;;34.01;44.26;101264.69;5011170;28;20421;-72
2022/06/22 08:38:26;;;;;;;9.93;6.90;;;;;;;34.35;43.30;101273.84;5012191;28;20448;-72
2022/06/22 08:41:07;;;;;;;13.37;8.50;;;;;;;34.46;42.86;101280.06;5027332;28;20819;-72
2022/06/22 08:43:56;;;;;;;12.40;8.37;;;;;;;34.40;43.50;101286.50;5027432;28;20964;-70
2022/06/22 08:46:43;;;;;;;11.30;7.93;;;;;;;34.66;43.21;101288.09;5012150;28;20441;-72
2022/06/22 08:50:11;;;;;;;13.83;9.93;;;;;;;34.68;43.45;101294.03;5012371;28;20406;-72
2022/06/22 08:53:24;;;;;;;10.67;8.03;;;;;;;34.82;42.69;101299.66;4970961;28;20476;-72
2022/06/22 08:56:22;;;;;;;12.37;8.80;;;;;;;34.87;43.35;101296.94;4894760;29;20440;-71
2022/06/22 08:59:19;;;;;;;11.60;9.20;;;;;;;35.18;43.44;101302.25;4902450;29;20444;-72
2022/06/22 09:01:59;;;;;;;14.67;10.13;;;;;;;35.20;42.77;101305.47;5008417;28;20797;-72
2022/06/22 09:04:28;;;;;;;16.07;11.13;;;;;;;35.23;43.11;101302.19;5027046;28;20870;-72
2022/06/22 09:07:18;;;;;;;15.57;12.30;;;;;;;35.30;42.50;101302.72;5012396;28;20397;-72
2022/06/22 09:10:22;;;;;;;18.57;11.73;;;;;;;35.32;42.82;101300.56;5010641;28;20491;-71
2022/06/22 09:13:10;;;;;;;18.97;10.50;;;;;;;35.37;42.91;101307.81;5010709;28;20937;-70
2022/06/22 09:15:36;;;;;;;16.97;11.77;;;;;;;35.42;42.14;101310.47;5012185;28;20397;-71
2022/06/22 09:18:05;;;;;;;15.67;9.80;;;;;;;35.57;41.83;101309.63;5010801;28;20452;-71
2022/06/22 09:20:44;;;;;;;14.40;9.53;;;;;;;35.73;41.88;101317.34;5011873;28;20472;-71
2022/06/22 09:23:13;;;;;;;13.10;9.10;;;;;;;35.67;42.32;101314.97;5011175;28;20831;-72
2022/06/22 09:26:03;;;;;;;13.67;9.53;;;;;;;35.57;42.23;101318.53;5011186;28;20507;-72
2022/06/22 09:28:46;;;;;;;12.73;9.13;;;;;;;35.57;42.13;101312.31;5011248;28;20432;-72
2022/06/22 09:31:49;;;;;;;15.43;11.00;;;;;;;35.61;42.10;101318.78;5011181;28;20460;-72
2022/06/22 09:34:21;;;;;;;18.50;10.40;;;;;;;35.71;41.22;101322.19;5011450;28;20428;-72
2022/06/22 09:37:13;;;;;;;15.50;9.63;;;;;;;35.74;41.54;101320.84;5011087;28;20435;-70
2022/06/22 09:40:10;;;;;;;13.60;9.73;;;;;;;35.58;41.65;101317.44;5027636;28;20813;-72
2022/06/22 09:42:54;;;;;;;13.40;7.50;;;;;;;35.61;42.31;101310.69;5011033;28;20945;-72
2022/06/22 09:45:38;;;;;;;14.90;9.50;;;;;;;35.72;41.49;101312.22;5029571;28;20813;-72
2022/06/22 09:48:33;;;;;;;12.53;8.57;;;;;;;35.71;41.64;101316.00;5031278;28;20446;-72
2022/06/22 09:51:20;;;;;;;12.30;8.07;;;;;;;35.64;42.34;101310.91;5031304;28;20456;-72
2022/06/22 09:57:35;;;;;;;20.37;11.17;;;;;;;35.64;42.73;101300.13;4961269;28;20426;-72
2022/06/22 10:00:31;;;;;;;13.40;9.87;;;;;;;35.98;41.28;101297.50;5016417;28;20439;-72
2022/06/22 10:03:18;;;;;;;10.80;8.17;;;;;;;36.10;40.61;101297.13;5026152;28;20420;-71
2022/06/22 10:05:44;;;;;;;15.20;10.93;;;;;;;36.12;41.67;101291.44;5016325;28;20519;-71
2022/06/22 10:08:28;;;;;;;11.53;7.50;;;;;;;36.09;41.52;101294.69;5014587;28;20412;-72
2022/06/22 10:11:10;;;;;;;21.13;11.33;;;;;;;36.15;41.45;101288.16;5014644;28;20456;-72
2022/06/22 10:13:39;;;;;;;15.50;10.17;;;;;;;36.13;41.49;101274.16;5014409;28;20460;-72
2022/06/22 10:16:37;;;;;;;21.73;15.03;;;;;;;36.16;40.85;101282.50;5014379;28;20416;-70
2022/06/22 10:19:38;;;;;;;17.90;12.13;;;;;;;36.08;41.86;101272.28;5012938;28;20445;-71
2022/06/22 10:22:19;;;;;;;22.83;11.70;;;;;;;36.11;41.37;101266.34;4976562;28;20906;-72
2022/06/22 10:25:12;;;;;;;15.87;11.17;;;;;;;36.08;41.41;101266.09;4975025;28;20452;-72
2022/06/22 10:28:01;;;;;;;18.33;12.53;;;;;;;36.06;41.17;101269.88;4975210;28;20406;-72
2022/06/22 10:30:59;;;;;;;15.37;11.50;;;;;;;36.11;42.00;101260.13;4974773;28;20465;-74
2022/06/22 10:33:56;;;;;;;14.07;10.43;;;;;;;36.02;41.45;101270.72;4976545;28;20414;-72
2022/06/22 10:36:44;;;;;;;20.10;12.10;;;;;;;35.92;41.90;101274.31;4975775;28;20895;-72
2022/06/22 10:39:38;;;;;;;18.20;11.00;;;;;;;36.13;41.65;101263.34;4990456;28;20434;-72
2022/06/22 10:45:48;;;;;;;14.70;10.10;;;;;;;36.23;41.63;101266.75;4950252;28;20493;-72
2022/06/22 10:48:47;;;;;;;20.13;11.60;;;;;;;36.07;42.56;101270.69;4990231;28;20437;-71
2022/06/22 10:51:19;;;;;;;22.30;11.87;;;;;;;36.08;42.43;101272.28;4974273;28;20457;-71
2022/06/22 10:54:14;;;;;;;19.73;12.17;;;;;;;36.04;42.72;101269.38;4974101;28;20411;-71
2022/06/22 10:56:49;;;;;;;36.37;14.37;;;;;;;36.07;42.14;101259.88;4973552;28;20419;-72
2022/06/22 10:59:21;;;;;;;14.10;9.80;;;;;;;36.08;42.27;101255.28;4973528;28;20497;-71
2022/06/22 11:02:38;;;;;;;16.30;10.10;;;;;;;36.10;42.31;101259.31;4977088;28;20488;-71
2022/06/22 11:05:22;;;;;;;21.47;15.50;;;;;;;36.08;42.46;101258.78;5000032;28;20437;-70
2022/06/22 11:08:26;;;;;;;17.30;11.30;;;;;;;35.99;42.04;101253.19;4990460;28;20483;-74
2022/06/22 11:11:06;;;;;;;15.40;10.80;;;;;;;36.02;41.58;101246.41;4989978;28;20460;-71
2022/06/22 11:13:41;;;;;;;18.33;11.60;;;;;;;36.21;41.60;101244.63;4977191;28;20504;-70
2022/06/22 11:16:25;;;;;;;17.50;10.57;;;;;;;36.25;41.11;101242.16;4978487;28;20429;-70
2022/06/22 11:19:36;;;;;;;16.57;10.80;;;;;;;36.10;41.90;101242.31;4987007;28;20479;-71
2022/06/22 11:22:20;;;;;;;15.27;9.43;;;;;;;36.12;41.74;101245.53;5031953;28;20436;-71
2022/06/22 11:25:06;;;;;;;19.20;11.27;;;;;;;36.03;42.24;101243.47;5029149;28;20455;-71
2022/06/22 11:30:51;;;;;;;21.00;11.20;;;;;;;36.07;42.15;101238.28;5033159;28;20522;-70
2022/06/22 11:33:42;;;;;;;16.27;11.67;;;;;;;36.08;42.21;101239.06;5030044;28;20494;-73
2022/06/22 11:36:19;;;;;;;15.10;10.40;;;;;;;36.07;42.39;101238.28;5031705;28;20427;-73
2022/06/22 11:39:10;;;;;;;15.90;9.70;;;;;;;36.06;42.25;101237.47;5037605;28;20424;-72
2022/06/22 11:42:14;;;;;;;21.27;12.00;;;;;;;36.11;42.57;101230.41;5031843;28;20489;-74
2022/06/22 11:48:05;;;;;;;13.90;11.57;;;;;;;36.18;42.12;101222.78;4991490;28;21035;-72
2022/06/22 11:50:50;;;;;;;13.20;10.43;;;;;;;36.13;42.02;101220.94;5023577;28;21049;-73
2022/06/22 11:53:50;;;;;;;17.10;10.80;;;;;;;36.10;42.10;101220.72;5031366;28;20431;-70
2022/06/22 11:56:31;;;;;;;22.50;13.20;;;;;;;36.20;42.13;101221.41;5030405;28;20423;-72
2022/06/22 11:59:18;;;;;;;14.77;11.40;;;;;;;36.22;41.90;101219.25;5030974;28;20439;-77
2022/06/22 12:02:07;;;;;;;15.33;10.47;;;;;;;36.16;41.65;101211.47;5036854;28;20455;-73
2022/06/22 12:05:28;;;;;;;12.77;10.00;;;;;;;36.06;42.36;101207.78;5029199;28;20851;-72
2022/06/22 12:08:15;;;;;;;14.73;10.60;;;;;;;35.85;43.18;101210.91;4940673;28;20419;-72
2022/06/22 12:10:58;;;;;;;15.93;11.53;;;;;;;36.10;42.50;101207.22;5025782;28;20471;-70
2022/06/22 12:17:03;;;;;;;17.23;11.97;;;;;;;36.23;42.44;101193.84;5024642;28;20912;-74
2022/06/22 12:19:29;;;;;;;15.37;11.60;;;;;;;36.26;42.23;101190.53;5028588;28;20489;-71
2022/06/22 12:22:17;;;;;;;25.97;13.53;;;;;;;36.30;42.19;101193.50;5030668;28;20471;-72
2022/06/22 12:24:47;;;;;;;16.87;12.00;;;;;;;36.31;41.80;101192.41;5031083;28;20431;-72
2022/06/22 12:27:30;;;;;;;17.97;12.73;;;;;;;36.29;41.62;101194.59;5030910;28;20447;-71
2022/06/22 12:30:21;;;;;;;16.97;11.43;;;;;;;36.24;42.31;101189.22;5032028;28;20442;-72
2022/06/22 12:33:03;;;;;;;16.60;12.90;;;;;;;36.29;42.10;101194.59;5030903;28;20435;-73
2022/06/22 12:35:44;;;;;;;17.87;12.40;;;;;;;36.26;41.87;101187.03;5030772;28;20534;-73
2022/06/22 12:38:35;;;;;;;24.27;13.87;;;;;;;36.29;42.39;101183.78;5030487;28;20411;-71
2022/06/22 12:41:27;;;;;;;19.63;14.17;;;;;;;36.23;42.79;101176.81;5032193;28;20443;-71
2022/06/22 12:44:18;;;;;;;15.40;11.23;;;;;;;36.23;42.35;101174.13;5030862;28;20506;-71